Time;durP1;ratioP1;P1;durP2;ratioP2;P2;SDS_P1;SDS_P2;PMS_P1;PMS_P2;Temp;Humidity;BMP_temperature;BMP_pressure;BME280_temperature;BME280_humidity;BME280_pressure;Samples;Min_cycle;Max_cycle;Signal;HPM_P1;HPM_P2
2023/10/26 00:00:33;;;;;;;51.80;20.33;;;;;;;-148.15;100.00;61821.78;5029450;28;20030;-89
2023/10/26 00:02:59;;;;;;;49.37;20.37;;;;;;;-148.15;100.00;61821.78;5009294;28;20030;-88
2023/10/26 00:05:25;;;;;;;47.58;19.65;;;;;;;-148.15;100.00;61821.78;5025669;28;20026;-88
2023/10/26 00:07:51;;;;;;;45.10;19.63;;;;;;;-148.15;100.00;61821.78;5011977;28;20029;-89
2023/10/26 00:10:17;;;;;;;45.33;19.43;;;;;;;-148.15;100.00;61821.78;5021607;28;20289;-88
2023/10/26 00:12:43;;;;;;;44.88;19.70;;;;;;;-148.15;100.00;61821.78;5027631;28;20470;-88
2023/10/26 00:15:08;;;;;;;47.30;19.87;;;;;;;-148.15;100.00;61821.78;5016410;28;20036;-87
2023/10/26 00:17:34;;;;;;;49.05;20.58;;;;;;;-148.15;100.00;61821.78;5006255;28;20056;-87
2023/10/26 00:19:59;;;;;;;44.80;19.77;;;;;;;-148.15;100.00;61821.78;4998246;28;20027;-87
2023/10/26 00:22:24;;;;;;;47.13;19.50;;;;;;;-148.15;100.00;61821.78;4994437;28;20037;-88
2023/10/26 00:24:50;;;;;;;45.80;19.67;;;;;;;-148.15;100.00;61821.78;4992003;28;20074;-87
2023/10/26 00:27:17;;;;;;;48.92;20.15;;;;;;;-148.15;100.00;61821.78;4975696;28;20034;-89
2023/10/26 00:29:42;;;;;;;44.42;19.92;;;;;;;-148.15;100.00;61821.78;4993847;28;20038;-88
2023/10/26 00:32:08;;;;;;;44.27;19.63;;;;;;;-148.15;100.00;61821.78;5011840;28;20473;-88
2023/10/26 00:34:34;;;;;;;47.42;20.08;;;;;;;-148.15;100.00;61821.78;5011742;28;20075;-88
2023/10/26 00:37:00;;;;;;;43.10;19.20;;;;;;;-148.15;100.00;61821.78;5010987;28;20423;-87
2023/10/26 00:39:25;;;;;;;47.23;19.10;;;;;;;-148.15;100.00;61821.78;5004318;28;20105;-87
2023/10/26 00:41:52;;;;;;;46.05;19.17;;;;;;;-148.15;100.00;61821.78;5009968;28;20075;-87
2023/10/26 00:44:17;;;;;;;42.20;19.08;;;;;;;-148.15;100.00;61821.78;5011315;28;20218;-88
2023/10/26 00:46:43;;;;;;;39.37;18.23;;;;;;;-148.15;100.00;61821.78;5005858;28;20027;-87
2023/10/26 00:49:11;;;;;;;42.60;18.27;;;;;;;-148.15;100.00;61821.78;5011883;28;20024;-87
2023/10/26 00:51:38;;;;;;;40.10;17.30;;;;;;;-148.15;100.00;61821.78;4996516;28;20467;-88
2023/10/26 00:54:04;;;;;;;38.72;17.92;;;;;;;-148.15;100.00;61821.78;4992005;28;20026;-87
2023/10/26 00:56:31;;;;;;;39.55;17.33;;;;;;;-148.15;100.00;61821.78;4992504;28;20035;-88
2023/10/26 00:58:57;;;;;;;37.10;17.38;;;;;;;-148.15;100.00;61821.78;4991686;28;20018;-88
2023/10/26 01:01:23;;;;;;;36.07;15.80;;;;;;;-148.15;100.00;61821.78;4974247;28;20437;-88
2023/10/26 01:03:51;;;;;;;33.00;15.07;;;;;;;-148.15;100.00;61821.78;4991425;28;20312;-87
2023/10/26 01:06:17;;;;;;;31.10;15.43;;;;;;;-148.15;100.00;61821.78;4990760;28;20763;-87
2023/10/26 01:08:42;;;;;;;30.70;14.77;;;;;;;-148.15;100.00;61821.78;4991070;28;20049;-88
2023/10/26 01:11:08;;;;;;;38.50;15.90;;;;;;;-148.15;100.00;61821.78;4993054;28;20122;-88
2023/10/26 01:13:34;;;;;;;35.73;14.83;;;;;;;-148.15;100.00;61821.78;4990678;28;20345;-87
2023/10/26 01:16:01;;;;;;;37.10;15.20;;;;;;;-148.15;100.00;61821.78;4990289;28;20030;-88
2023/10/26 01:18:26;;;;;;;32.70;14.45;;;;;;;-148.15;100.00;61821.78;4991520;28;20022;-88
2023/10/26 01:20:53;;;;;;;39.10;16.00;;;;;;;-148.15;100.00;61821.78;4989614;28;20125;-88
2023/10/26 01:23:18;;;;;;;36.63;16.80;;;;;;;-148.15;100.00;61821.78;4991412;28;20037;-88
2023/10/26 01:25:51;;;;;;;35.40;14.83;;;;;;;-148.15;100.00;61821.78;4991313;28;20385;-87
2023/10/26 01:28:16;;;;;;;33.13;16.53;;;;;;;-148.15;100.00;61821.78;5004661;28;20030;-88
2023/10/26 01:30:41;;;;;;;40.83;16.93;;;;;;;-148.15;100.00;61821.78;4990113;28;20378;-88
2023/10/26 01:33:07;;;;;;;40.47;16.23;;;;;;;-148.15;100.00;61821.78;4990775;28;20065;-88
2023/10/26 01:35:38;;;;;;;38.27;16.77;;;;;;;-148.15;100.00;61821.78;4989894;28;20027;-88
2023/10/26 01:38:04;;;;;;;38.58;16.73;;;;;;;-148.15;100.00;61821.78;4993884;28;20022;-88
2023/10/26 01:40:29;;;;;;;34.00;16.52;;;;;;;-148.15;100.00;61821.78;5002331;28;20042;-88
2023/10/26 01:42:54;;;;;;;40.00;16.20;;;;;;;-148.15;100.00;61821.78;4991039;28;20080;-87
2023/10/26 01:45:20;;;;;;;40.50;15.50;;;;;;;-148.15;100.00;61821.78;5001325;28;20030;-88
2023/10/26 01:47:46;;;;;;;33.80;15.98;;;;;;;-148.15;100.00;61821.78;5009117;28;20078;-87
2023/10/26 01:50:11;;;;;;;33.93;15.13;;;;;;;-148.15;100.00;61821.78;5004668;28;20034;-88
2023/10/26 01:52:37;;;;;;;36.77;16.50;;;;;;;-148.15;100.00;61821.78;4990521;28;20026;-88
2023/10/26 01:55:02;;;;;;;38.17;17.30;;;;;;;-148.15;100.00;61821.78;4990134;28;20030;-89
2023/10/26 01:57:28;;;;;;;40.30;17.10;;;;;;;-148.15;100.00;61821.78;5007988;28;20040;-89
2023/10/26 01:59:55;;;;;;;42.45;16.63;;;;;;;-148.15;100.00;61821.78;5009249;28;20030;-89
2023/10/26 02:02:21;;;;;;;37.72;16.42;;;;;;;-148.15;100.00;61821.78;5010589;28;20028;-89
2023/10/26 02:04:46;;;;;;;37.67;16.43;;;;;;;-148.15;100.00;61821.78;4995487;28;20117;-89
2023/10/26 02:07:12;;;;;;;35.53;16.17;;;;;;;-148.15;100.00;61821.78;4990577;28;20037;-89
2023/10/26 02:09:37;;;;;;;33.60;15.33;;;;;;;-148.15;100.00;61821.78;5005777;28;20030;-88
2023/10/26 02:12:03;;;;;;;37.13;15.60;;;;;;;-148.15;100.00;61821.78;4992675;28;20396;-88
2023/10/26 02:14:28;;;;;;;35.40;14.43;;;;;;;-148.15;100.00;61821.78;4990578;28;20037;-87
2023/10/26 02:16:53;;;;;;;36.67;15.47;;;;;;;-148.15;100.00;61821.78;5000380;28;20052;-87
2023/10/26 02:19:19;;;;;;;39.35;15.13;;;;;;;-148.15;100.00;61821.78;5009444;28;20122;-87
2023/10/26 02:21:44;;;;;;;35.70;15.43;;;;;;;-148.15;100.00;61821.78;5006635;28;20129;-88
2023/10/26 02:24:09;;;;;;;39.97;16.20;;;;;;;-148.15;100.00;61821.78;5009607;28;20025;-88
2023/10/26 02:26:35;;;;;;;39.97;16.23;;;;;;;-148.15;100.00;61821.78;5011323;28;20080;-88
2023/10/26 02:29:00;;;;;;;45.77;16.07;;;;;;;-148.15;100.00;61821.78;5010727;28;20650;-87
2023/10/26 02:31:25;;;;;;;34.63;15.00;;;;;;;-148.15;100.00;61821.78;4997031;28;20160;-88
2023/10/26 02:33:50;;;;;;;41.53;16.27;;;;;;;-148.15;100.00;61821.78;4990304;28;20760;-87
2023/10/26 02:36:16;;;;;;;36.70;15.20;;;;;;;-148.15;100.00;61821.78;4989307;28;20029;-88
2023/10/26 02:38:41;;;;;;;42.77;16.63;;;;;;;-148.15;100.00;61821.78;4990180;28;20125;-88
2023/10/26 02:41:07;;;;;;;37.97;15.37;;;;;;;-148.15;100.00;61821.78;4999454;28;20377;-88
2023/10/26 02:43:33;;;;;;;38.88;15.50;;;;;;;-148.15;100.00;61821.78;5009021;28;20152;-88
2023/10/26 02:46:12;;;;;;;34.90;15.38;;;;;;;-148.15;100.00;61821.78;5009604;28;20105;-88
2023/10/26 02:49:06;;;;;;;36.10;15.60;;;;;;;-148.15;100.00;61821.78;5011661;28;20084;-88
2023/10/26 02:51:34;;;;;;;36.93;14.47;;;;;;;-148.15;100.00;61821.78;4995604;28;20304;-88
2023/10/26 02:54:01;;;;;;;42.50;16.25;;;;;;;-148.15;100.00;61821.78;5013723;28;20033;-88
2023/10/26 02:56:26;;;;;;;38.33;14.88;;;;;;;-148.15;100.00;61821.78;5012386;28;20078;-88
2023/10/26 02:58:52;;;;;;;39.20;14.80;;;;;;;-148.15;100.00;61821.78;5012043;28;20112;-88
2023/10/26 03:01:17;;;;;;;40.83;15.65;;;;;;;-148.15;100.00;61821.78;5008179;28;20044;-88
2023/10/26 03:03:44;;;;;;;37.80;14.30;;;;;;;-148.15;100.00;61821.78;5011632;28;20021;-87
2023/10/26 03:06:09;;;;;;;39.03;14.93;;;;;;;-148.15;100.00;61821.78;5018857;28;20029;-88
2023/10/26 03:08:34;;;;;;;45.00;15.13;;;;;;;-148.15;100.00;61821.78;4994067;28;20026;-88
2023/10/26 03:11:00;;;;;;;35.03;14.23;;;;;;;-148.15;100.00;61821.78;5002540;28;20109;-88
2023/10/26 03:13:25;;;;;;;39.77;14.23;;;;;;;-148.15;100.00;61821.78;4994090;28;20037;-87
2023/10/26 03:15:50;;;;;;;38.92;14.02;;;;;;;-148.15;100.00;61821.78;5001718;28;20018;-88
2023/10/26 03:18:16;;;;;;;35.53;14.57;;;;;;;-148.15;100.00;61821.78;5011607;28;20057;-88
2023/10/26 03:20:41;;;;;;;37.20;14.43;;;;;;;-148.15;100.00;61821.78;5011789;28;20045;-88
2023/10/26 03:23:06;;;;;;;38.53;14.50;;;;;;;-148.15;100.00;61821.78;5012965;28;20414;-87
2023/10/26 03:25:32;;;;;;;36.80;14.43;;;;;;;-148.15;100.00;61821.78;4995873;28;20034;-88
2023/10/26 03:27:58;;;;;;;38.07;14.80;;;;;;;-148.15;100.00;61821.78;4992955;28;20549;-90
2023/10/26 03:30:24;;;;;;;36.28;14.00;;;;;;;-148.15;100.00;61821.78;5010897;28;20040;-87
2023/10/26 03:32:49;;;;;;;39.37;15.47;;;;;;;-148.15;100.00;61821.78;5007088;28;20030;-89
2023/10/26 03:35:14;;;;;;;40.60;15.05;;;;;;;-148.15;100.00;61821.78;5006230;23;20544;-87
2023/10/26 03:37:40;;;;;;;45.57;15.43;;;;;;;-148.15;100.00;61821.78;5011616;28;20400;-88
2023/10/26 03:40:07;;;;;;;39.90;15.70;;;;;;;-148.15;100.00;61821.78;5010906;28;20034;-87
2023/10/26 03:42:32;;;;;;;46.73;14.53;;;;;;;-148.15;100.00;61821.78;5011986;28;20277;-88
2023/10/26 03:45:29;;;;;;;39.15;15.05;;;;;;;-148.15;100.00;61821.78;5013204;23;20043;-89
2023/10/26 03:47:57;;;;;;;39.30;14.30;;;;;;;-148.15;100.00;61821.78;4954859;28;20031;-88
2023/10/26 03:50:23;;;;;;;36.80;14.57;;;;;;;-148.15;100.00;61821.78;4971292;28;20175;-88
2023/10/26 03:52:48;;;;;;;36.90;14.73;;;;;;;-148.15;100.00;61821.78;4987872;28;20119;-88
2023/10/26 03:55:13;;;;;;;42.60;14.23;;;;;;;-148.15;100.00;61821.78;4993167;28;20034;-88
2023/10/26 03:58:21;;;;;;;39.93;13.67;;;;;;;-148.15;100.00;61821.78;4992227;28;20038;-88
2023/10/26 04:01:00;;;;;;;32.80;13.07;;;;;;;-148.15;100.00;61821.78;4971169;28;20039;-89
2023/10/26 04:03:31;;;;;;;37.80;14.10;;;;;;;-148.15;100.00;61821.78;4953624;28;20118;-91
2023/10/26 04:05:57;;;;;;;39.90;14.68;;;;;;;-148.15;100.00;61821.78;4972735;28;20026;-89
2023/10/26 04:08:23;;;;;;;39.43;14.03;;;;;;;-148.15;100.00;61821.78;4970146;28;20085;-91
2023/10/26 04:10:50;;;;;;;38.58;14.48;;;;;;;-148.15;100.00;61821.78;4972928;28;20580;-92
2023/10/26 04:13:35;;;;;;;37.43;14.03;;;;;;;-148.15;100.00;61821.78;4975176;28;20504;-90
2023/10/26 04:16:49;;;;;;;42.50;12.97;;;;;;;-148.15;100.00;61821.78;4992464;28;20294;-90
2023/10/26 04:19:15;;;;;;;45.53;13.52;;;;;;;-148.15;100.00;61821.78;4978408;28;20047;-91
2023/10/26 04:22:14;;;;;;;42.83;13.43;;;;;;;-148.15;100.00;61821.78;4984063;28;20115;-88
2023/10/26 04:24:39;;;;;;;42.28;13.95;;;;;;;-148.15;100.00;61821.78;4963002;28;20031;-88
2023/10/26 04:27:05;;;;;;;53.40;14.80;;;;;;;-148.15;100.00;61821.78;4955802;28;20459;-88
2023/10/26 04:29:33;;;;;;;60.97;15.68;;;;;;;-148.15;100.00;61821.78;4978634;28;20335;-89
2023/10/26 04:31:58;;;;;;;52.57;15.17;;;;;;;-148.15;100.00;61821.78;4972727;28;20030;-89
2023/10/26 04:34:29;;;;;;;53.93;15.20;;;;;;;-148.15;100.00;61821.78;4971475;28;20374;-90
2023/10/26 04:37:34;;;;;;;66.43;16.77;;;;;;;-148.15;100.00;61821.78;4971071;28;20158;-90
2023/10/26 04:40:06;;;;;;;199.57;19.63;;;;;;;-148.15;100.00;61821.78;4964051;28;20089;-90
2023/10/26 04:42:32;;;;;;;145.73;19.55;;;;;;;-148.15;100.00;61821.78;5224643;23;20064;-89
2023/10/26 04:44:57;;;;;;;139.95;19.95;;;;;;;-148.15;100.00;61821.78;4970292;28;20105;-89
2023/10/26 04:47:53;;;;;;;96.90;18.00;;;;;;;-148.15;100.00;61821.78;4972225;28;20038;-89
2023/10/26 04:50:18;;;;;;;135.68;20.38;;;;;;;-148.15;100.00;61821.78;4971022;28;20478;-90
2023/10/26 04:52:43;;;;;;;97.13;16.80;;;;;;;-148.15;100.00;61821.78;4970104;28;20046;-89
2023/10/26 04:55:22;;;;;;;110.50;17.80;;;;;;;-148.15;100.00;61821.78;4998531;28;20034;-90
2023/10/26 04:57:47;;;;;;;118.80;17.08;;;;;;;-148.15;100.00;61821.78;4976013;28;20125;-89
2023/10/26 05:00:16;;;;;;;69.90;17.67;;;;;;;-148.15;100.00;61821.78;4983203;28;20078;-90
2023/10/26 05:03:10;;;;;;;98.28;16.88;;;;;;;-148.15;100.00;61821.78;4977805;28;20027;-91
2023/10/26 05:05:54;;;;;;;98.43;16.75;;;;;;;-148.15;100.00;61821.78;5061671;22;20181;-88
2023/10/26 05:08:20;;;;;;;234.10;19.45;;;;;;;-148.15;100.00;61821.78;4975668;28;20038;-88
2023/10/26 05:10:46;;;;;;;72.80;15.23;;;;;;;-148.15;100.00;61821.78;4989860;28;20031;-89
2023/10/26 05:15:58;;;;;;;70.03;15.30;;;;;;;-148.15;100.00;61821.78;4967135;23;20075;-89
2023/10/26 05:18:24;;;;;;;87.90;16.03;;;;;;;-148.15;100.00;61821.78;4950012;28;20094;-88
2023/10/26 05:20:49;;;;;;;79.13;16.15;;;;;;;-148.15;100.00;61821.78;4952631;29;20046;-89
2023/10/26 05:28:54;;;;;;;90.60;15.43;;;;;;;-148.15;100.00;61821.78;5805632;23;20050;-90
2023/10/26 05:32:06;;;;;;;79.43;15.25;;;;;;;-148.15;100.00;61821.78;4980123;28;20023;-91
2023/10/26 05:37:56;;;;;;;132.43;17.50;;;;;;;-148.15;100.00;61821.78;4970216;28;20042;-90
2023/10/26 05:40:56;;;;;;;83.20;14.65;;;;;;;-148.15;100.00;61821.78;4970720;28;20545;-91
2023/10/26 05:43:27;;;;;;;62.70;14.45;;;;;;;-148.15;100.00;61821.78;4973444;28;20495;-89
2023/10/26 05:46:17;;;;;;;56.42;13.63;;;;;;;-148.15;100.00;61821.78;4976336;28;20422;-90
2023/10/26 05:48:43;;;;;;;60.03;14.47;;;;;;;-148.15;100.00;61821.78;4911892;29;20113;-90
2023/10/26 05:51:17;;;;;;;79.87;14.67;;;;;;;-148.15;100.00;61821.78;4954047;28;20322;-89
2023/10/26 05:53:43;;;;;;;63.05;14.38;;;;;;;-148.15;100.00;61821.78;4974896;28;20023;-90
2023/10/26 05:56:30;;;;;;;47.13;14.73;;;;;;;-148.15;100.00;61821.78;4977853;28;20034;-90
2023/10/26 05:58:55;;;;;;;51.08;14.95;;;;;;;-148.15;100.00;61821.78;4971374;28;20046;-90
2023/10/26 06:01:21;;;;;;;71.80;15.43;;;;;;;-148.15;100.00;61821.78;4973901;28;20039;-90
2023/10/26 06:03:55;;;;;;;69.50;15.40;;;;;;;-148.15;100.00;61821.78;4977483;28;20042;-90
2023/10/26 06:06:21;;;;;;;60.05;14.93;;;;;;;-148.15;100.00;61821.78;4982799;28;20031;-90
2023/10/26 06:08:46;;;;;;;73.77;15.23;;;;;;;-148.15;100.00;61821.78;4975727;28;20143;-90
2023/10/26 06:11:18;;;;;;;110.68;17.27;;;;;;;-148.15;100.00;61821.78;4991343;28;20027;-90
2023/10/26 06:13:46;;;;;;;148.17;17.20;;;;;;;-148.15;100.00;61821.78;4973683;28;20031;-90
2023/10/26 06:16:24;;;;;;;267.13;20.17;;;;;;;-148.15;100.00;61821.78;4966202;28;20827;-91
2023/10/26 06:18:59;;;;;;;122.40;16.73;;;;;;;-148.15;100.00;61821.78;4946977;28;20456;-90
2023/10/26 06:21:34;;;;;;;124.32;17.52;;;;;;;-148.15;100.00;61821.78;4957535;28;20028;-88
2023/10/26 06:23:59;;;;;;;177.57;18.20;;;;;;;-148.15;100.00;61821.78;4967529;28;20375;-88
2023/10/26 06:26:51;;;;;;;129.90;16.47;;;;;;;-148.15;100.00;61821.78;4973177;28;20042;-89
2023/10/26 06:29:28;;;;;;;95.95;16.17;;;;;;;-148.15;100.00;61821.78;4957135;28;20110;-89
2023/10/26 06:31:54;;;;;;;120.78;16.33;;;;;;;-148.15;100.00;61821.78;4974543;28;20037;-88
2023/10/26 06:34:19;;;;;;;197.20;17.73;;;;;;;-148.15;100.00;61821.78;4974643;28;20389;-89
2023/10/26 06:36:44;;;;;;;166.00;17.77;;;;;;;-148.15;100.00;61821.78;4972301;28;20038;-88
2023/10/26 06:39:10;;;;;;;155.70;17.50;;;;;;;-148.15;100.00;61821.78;4958383;28;20027;-88
2023/10/26 06:41:35;;;;;;;98.97;16.30;;;;;;;-148.15;100.00;61821.78;4954797;29;20131;-89
2023/10/26 06:44:04;;;;;;;132.80;17.27;;;;;;;-148.15;100.00;61821.78;4955071;28;20488;-88
2023/10/26 06:46:38;;;;;;;116.28;16.02;;;;;;;-148.15;100.00;61821.78;4939836;28;20027;-88
2023/10/26 06:49:03;;;;;;;196.15;17.45;;;;;;;-148.15;100.00;61821.78;4973288;28;20058;-88
2023/10/26 06:51:30;;;;;;;114.83;16.03;;;;;;;-148.15;100.00;61821.78;4972812;28;20394;-89
2023/10/26 06:54:15;;;;;;;269.95;19.00;;;;;;;-148.15;100.00;61821.78;4974005;28;20031;-89
2023/10/26 06:56:49;;;;;;;97.90;16.27;;;;;;;-148.15;100.00;61821.78;4972198;28;20050;-88
2023/10/26 06:59:15;;;;;;;227.50;17.33;;;;;;;-148.15;100.00;61821.78;4972752;28;20042;-89
2023/10/26 07:01:46;;;;;;;72.07;14.13;;;;;;;-148.15;100.00;61821.78;4972159;28;20038;-88
2023/10/26 07:04:12;;;;;;;182.97;17.13;;;;;;;-148.15;100.00;61821.78;4973878;28;20031;-88
2023/10/26 07:06:37;;;;;;;168.48;16.42;;;;;;;-148.15;100.00;61821.78;4972021;28;20078;-84
2023/10/26 07:09:03;;;;;;;176.57;16.70;;;;;;;-148.15;100.00;61821.78;4973012;28;20081;-84
2023/10/26 07:11:28;;;;;;;232.35;18.17;;;;;;;-148.15;100.00;61821.78;4973405;28;20019;-84
2023/10/26 07:13:54;;;;;;;144.43;17.67;;;;;;;-148.15;100.00;61821.78;4971605;28;20035;-84
2023/10/26 07:16:19;;;;;;;90.00;15.23;;;;;;;-148.15;100.00;61821.78;4971758;28;20074;-84
2023/10/26 07:18:44;;;;;;;247.20;17.40;;;;;;;-148.15;100.00;61821.78;4973463;28;20081;-84
2023/10/26 07:21:10;;;;;;;69.40;16.23;;;;;;;-148.15;100.00;61821.78;4973545;28;20493;-84
2023/10/26 07:23:36;;;;;;;96.63;16.33;;;;;;;-148.15;100.00;61821.78;4972762;28;20031;-84
2023/10/26 07:26:02;;;;;;;130.47;17.53;;;;;;;-148.15;100.00;61821.78;4972668;28;20034;-84
2023/10/26 07:28:27;;;;;;;94.35;16.23;;;;;;;-148.15;100.00;61821.78;4971566;28;20101;-85
2023/10/26 07:30:53;;;;;;;329.10;19.97;;;;;;;-148.15;100.00;61821.78;4968534;28;20058;-85
2023/10/26 07:33:19;;;;;;;230.40;18.30;;;;;;;-148.15;100.00;61821.78;4970327;28;20360;-84
2023/10/26 07:35:56;;;;;;;158.57;15.97;;;;;;;-148.15;100.00;61821.78;4972690;28;20137;-83
2023/10/26 07:38:25;;;;;;;221.77;17.33;;;;;;;-148.15;100.00;61821.78;4972722;28;20309;-83
2023/10/26 07:40:53;;;;;;;177.88;15.68;;;;;;;-148.15;100.00;61821.78;4971752;28;20102;-84
2023/10/26 07:43:18;;;;;;;169.75;17.48;;;;;;;-148.15;100.00;61821.78;4973268;28;20039;-83
2023/10/26 07:45:46;;;;;;;71.40;14.82;;;;;;;-148.15;100.00;61821.78;4971685;28;20047;-84
2023/10/26 07:48:11;;;;;;;151.73;15.57;;;;;;;-148.15;100.00;61821.78;4972323;28;20075;-84
2023/10/26 07:50:36;;;;;;;245.00;17.67;;;;;;;-148.15;100.00;61821.78;4972776;28;20860;-84
2023/10/26 07:53:02;;;;;;;123.20;16.10;;;;;;;-148.15;100.00;61821.78;4971259;28;20672;-84
2023/10/26 07:55:27;;;;;;;99.83;16.23;;;;;;;-148.15;100.00;61821.78;4970815;28;20114;-83
2023/10/26 07:57:53;;;;;;;96.17;14.83;;;;;;;-148.15;100.00;61821.78;4965717;28;20066;-85
2023/10/26 08:00:19;;;;;;;157.63;16.05;;;;;;;-148.15;100.00;61821.78;4964323;28;20027;-84
2023/10/26 08:02:44;;;;;;;430.23;24.40;;;;;;;-148.15;100.00;61821.78;4964226;28;20054;-86
2023/10/26 08:05:09;;;;;;;134.93;16.50;;;;;;;-148.15;100.00;61821.78;4970520;28;20027;-85
2023/10/26 08:07:36;;;;;;;84.47;14.90;;;;;;;-148.15;100.00;61821.78;4971268;28;20114;-86
2023/10/26 08:10:02;;;;;;;72.90;15.53;;;;;;;-148.15;100.00;61821.78;4970926;28;20401;-85
2023/10/26 08:12:28;;;;;;;215.40;18.60;;;;;;;-148.15;100.00;61821.78;4953711;29;20035;-84
2023/10/26 08:14:55;;;;;;;183.27;17.27;;;;;;;-148.15;100.00;61821.78;4935595;29;20034;-84
2023/10/26 08:17:21;;;;;;;201.75;18.33;;;;;;;-148.15;100.00;61821.78;4954167;28;20108;-83
2023/10/26 08:19:51;;;;;;;146.97;16.50;;;;;;;-148.15;100.00;61821.78;4967806;28;20122;-84
2023/10/26 08:22:16;;;;;;;233.55;18.75;;;;;;;-148.15;100.00;61821.78;4967271;28;22078;-82
2023/10/26 08:24:41;;;;;;;87.33;14.43;;;;;;;-148.15;100.00;61821.78;4945921;28;20035;-84
2023/10/26 08:27:06;;;;;;;69.23;14.40;;;;;;;-148.15;100.00;61821.78;4966666;28;20667;-85
2023/10/26 08:29:32;;;;;;;83.07;14.68;;;;;;;-148.15;100.00;61821.78;4969526;28;20045;-85
2023/10/26 08:31:57;;;;;;;170.30;16.13;;;;;;;-148.15;100.00;61821.78;4972569;28;20169;-84
2023/10/26 08:34:22;;;;;;;120.37;15.27;;;;;;;-148.15;100.00;61821.78;4970667;28;20089;-84
2023/10/26 08:36:48;;;;;;;58.83;14.40;;;;;;;-148.15;100.00;61821.78;4971064;28;20119;-84
2023/10/26 08:39:13;;;;;;;61.83;14.10;;;;;;;-148.15;100.00;61821.78;4970401;28;20459;-85
2023/10/26 08:41:47;;;;;;;64.87;13.90;;;;;;;-148.15;100.00;61821.78;4965228;28;20729;-84
2023/10/26 08:44:13;;;;;;;62.60;14.52;;;;;;;-148.15;100.00;61821.78;4970661;28;20023;-84
2023/10/26 08:46:40;;;;;;;105.97;14.20;;;;;;;-148.15;100.00;61821.78;4969606;28;20083;-84
2023/10/26 08:49:08;;;;;;;65.30;13.77;;;;;;;-148.15;100.00;61821.78;4971664;28;20479;-83
2023/10/26 08:51:33;;;;;;;54.90;14.53;;;;;;;-148.15;100.00;61821.78;4971066;28;20037;-83
2023/10/26 08:53:58;;;;;;;78.20;14.80;;;;;;;-148.15;100.00;61821.78;4970896;28;20298;-83
2023/10/26 08:56:24;;;;;;;96.03;15.40;;;;;;;-148.15;100.00;61821.78;4967876;28;20106;-84
2023/10/26 08:58:54;;;;;;;139.17;15.20;;;;;;;-148.15;100.00;61821.78;4969685;28;20035;-83
2023/10/26 09:01:20;;;;;;;111.05;15.23;;;;;;;-148.15;100.00;61821.78;4969561;28;20035;-83
2023/10/26 09:03:45;;;;;;;91.77;14.63;;;;;;;-148.15;100.00;61821.78;4969673;28;20042;-83
2023/10/26 09:06:10;;;;;;;48.03;14.27;;;;;;;-148.15;100.00;61821.78;4971118;28;20031;-84
2023/10/26 09:08:36;;;;;;;58.10;14.87;;;;;;;-148.15;100.00;61821.78;4969728;28;20864;-83
2023/10/26 09:11:19;;;;;;;196.93;16.50;;;;;;;-148.15;100.00;61821.78;4970765;28;20030;-83
2023/10/26 09:13:44;;;;;;;52.08;13.82;;;;;;;-148.15;100.00;61821.78;4967019;28;20114;-83
2023/10/26 09:16:09;;;;;;;198.47;18.60;;;;;;;-148.15;100.00;61821.78;4969304;28;20105;-83
2023/10/26 09:18:36;;;;;;;118.13;14.83;;;;;;;-148.15;100.00;61821.78;4961242;28;20039;-83
2023/10/26 09:21:06;;;;;;;100.15;15.02;;;;;;;-148.15;100.00;61821.78;4969139;28;20110;-84
2023/10/26 09:23:37;;;;;;;58.87;14.17;;;;;;;-148.15;100.00;61821.78;4969616;28;20533;-85
2023/10/26 09:26:07;;;;;;;55.83;14.27;;;;;;;-148.15;100.00;61821.78;4968518;28;20324;-84
2023/10/26 09:28:53;;;;;;;149.40;17.52;;;;;;;-148.15;100.00;61821.78;4947360;28;20039;-83
2023/10/26 09:31:18;;;;;;;61.90;14.52;;;;;;;-148.15;100.00;61821.78;4967946;28;20077;-81
2023/10/26 09:33:45;;;;;;;45.80;13.82;;;;;;;-148.15;100.00;61821.78;4969469;28;20023;-83
2023/10/26 09:36:17;;;;;;;48.20;14.80;;;;;;;-148.15;100.00;61821.78;4971196;28;20105;-83
2023/10/26 09:38:43;;;;;;;61.88;14.77;;;;;;;-148.15;100.00;61821.78;4969806;28;20015;-83
2023/10/26 09:41:11;;;;;;;38.28;15.13;;;;;;;-148.15;100.00;61821.78;4964971;28;20042;-84
2023/10/26 09:43:42;;;;;;;35.28;15.25;;;;;;;-148.15;100.00;61821.78;4969865;28;20489;-84
2023/10/26 09:46:11;;;;;;;35.77;14.20;;;;;;;-148.15;100.00;61821.78;4970996;28;20088;-86
2023/10/26 09:48:37;;;;;;;38.20;15.43;;;;;;;-148.15;100.00;61821.78;4970072;28;20854;-85
2023/10/26 09:51:04;;;;;;;34.92;15.38;;;;;;;-148.15;100.00;61821.78;4971427;28;20058;-85
2023/10/26 09:53:32;;;;;;;37.45;15.30;;;;;;;-148.15;100.00;61821.78;4964586;28;20073;-85
2023/10/26 09:55:58;;;;;;;38.08;15.90;;;;;;;-148.15;100.00;61821.78;4971143;28;20090;-83
2023/10/26 09:58:27;;;;;;;49.97;16.48;;;;;;;-148.15;100.00;61821.78;4956162;28;20027;-84
2023/10/26 10:00:52;;;;;;;37.57;15.80;;;;;;;-148.15;100.00;61821.78;4974847;28;20030;-85
2023/10/26 10:03:18;;;;;;;43.08;16.63;;;;;;;-148.15;100.00;61821.78;4974612;28;20069;-84
2023/10/26 10:05:45;;;;;;;32.93;14.33;;;;;;;-148.15;100.00;61821.78;4973047;28;20508;-83
2023/10/26 10:08:11;;;;;;;30.02;14.63;;;;;;;-148.15;100.00;61821.78;4972876;28;20106;-85
2023/10/26 10:10:57;;;;;;;31.60;15.23;;;;;;;-148.15;100.00;61821.78;4974175;28;20482;-86
2023/10/26 10:13:37;;;;;;;32.17;15.13;;;;;;;-148.15;100.00;61821.78;4973475;28;20550;-86
2023/10/26 10:16:03;;;;;;;31.67;14.43;;;;;;;-148.15;100.00;61821.78;4974135;28;20035;-86
2023/10/26 10:18:28;;;;;;;32.93;15.00;;;;;;;-148.15;100.00;61821.78;4958126;28;20376;-85
2023/10/26 10:20:54;;;;;;;31.88;14.38;;;;;;;-148.15;100.00;61821.78;4970020;28;20043;-84
2023/10/26 10:23:30;;;;;;;30.43;13.63;;;;;;;-148.15;100.00;61821.78;4973351;28;20405;-84
2023/10/26 10:25:58;;;;;;;31.38;14.82;;;;;;;-148.15;100.00;61821.78;4974360;28;20026;-84
2023/10/26 10:28:23;;;;;;;30.17;14.68;;;;;;;-148.15;100.00;61821.78;4973750;28;20034;-85
2023/10/26 10:30:59;;;;;;;35.40;15.40;;;;;;;-148.15;100.00;61821.78;4973688;28;20093;-84
2023/10/26 10:33:28;;;;;;;32.53;14.48;;;;;;;-148.15;100.00;61821.78;4974583;28;20459;-84
2023/10/26 10:36:08;;;;;;;28.60;13.73;;;;;;;-148.15;100.00;61821.78;4973613;28;20037;-84
2023/10/26 10:38:33;;;;;;;29.67;14.60;;;;;;;-148.15;100.00;61821.78;4973580;28;20335;-86
2023/10/26 10:40:58;;;;;;;29.67;14.88;;;;;;;-148.15;100.00;61821.78;4973863;28;20031;-84
2023/10/26 10:43:46;;;;;;;30.77;14.93;;;;;;;-148.15;100.00;61821.78;4974229;28;20085;-84
2023/10/26 10:46:18;;;;;;;27.33;12.73;;;;;;;-148.15;100.00;61821.78;4973798;28;20494;-85
2023/10/26 10:49:00;;;;;;;26.63;13.43;;;;;;;-148.15;100.00;61821.78;4973070;28;20581;-84
2023/10/26 10:51:37;;;;;;;27.30;14.02;;;;;;;-148.15;100.00;61821.78;4972573;28;20038;-84
2023/10/26 10:54:08;;;;;;;28.35;14.50;;;;;;;-148.15;100.00;61821.78;4973616;28;20390;-84
2023/10/26 10:56:41;;;;;;;30.50;14.73;;;;;;;-148.15;100.00;61821.78;4973123;28;20475;-84
2023/10/26 10:59:26;;;;;;;29.13;14.55;;;;;;;-148.15;100.00;61821.78;4955006;29;20039;-84
2023/10/26 11:02:12;;;;;;;29.83;14.63;;;;;;;-148.15;100.00;61821.78;4974056;28;20031;-84
2023/10/26 11:05:10;;;;;;;29.90;14.20;;;;;;;-148.15;100.00;61821.78;4976225;28;20278;-84
2023/10/26 11:07:35;;;;;;;33.22;14.43;;;;;;;-148.15;100.00;61821.78;4928870;28;20051;-84
2023/10/26 11:10:02;;;;;;;31.07;15.87;;;;;;;-148.15;100.00;61821.78;4972030;28;20441;-84
2023/10/26 11:12:29;;;;;;;28.83;15.18;;;;;;;-148.15;100.00;61821.78;4972603;28;20047;-84